Terminal Aerodrome Forecast
Issued by NWS

Home | Current Version | Previous Version | Text Only | Print | Product List | Glossary On
Versions: 1 2 3 4 5 6 7 8 9 10 11 12 13 14 15 16 17 18 19 20 21 22 23 24 25 26 27 28 29
000
FTUS44 KLIX 111100 RRA
TAFHUM
TAF
KHUM 111146Z 1112/1212 00000KT 1/4SM FG VV002
     FM111500 VRB03KT P6SM FEW035 SCT250
      TEMPO 1118/1122 VRB25KT 2SM +TSRA BKN025CB
     FM120300 26004KT P6SM SCT060
     FM121000 32006KT P6SM SCT200=

USA.gov is the U.S. government's official web portal to all federal, state and local government web resources and services.